Time;durP1;ratioP1;P1;durP2;ratioP2;P2;SDS_P1;SDS_P2;PMS_P1;PMS_P2;Temp;Humidity;BMP_temperature;BMP_pressure;BME280_temperature;BME280_humidity;BME280_pressure;Samples;Min_cycle;Max_cycle;Signal;HPM_P1;HPM_P2
2022/08/22 00:01:20;;;;;;;9.32;4.50;;;;;;;20.40;50.60;101540.38;5003422;28;123748;-80
2022/08/22 00:04:22;;;;;;;7.53;4.20;;;;;;;20.38;50.49;101542.34;5005048;28;123385;-80
2022/08/22 00:07:00;;;;;;;9.45;4.47;;;;;;;20.37;50.58;101535.22;4979767;28;118102;-80
2022/08/22 00:09:36;;;;;;;9.00;4.47;;;;;;;20.38;50.97;101547.72;5002951;28;119263;-79
2022/08/22 00:12:32;;;;;;;6.05;4.28;;;;;;;20.38;50.69;101542.34;5000696;28;124015;-80
2022/08/22 00:15:18;;;;;;;6.65;4.45;;;;;;;20.38;50.94;101539.66;5013595;28;123341;-81
2022/08/22 00:18:23;;;;;;;8.00;4.43;;;;;;;20.38;50.76;101542.34;5004579;28;119380;-80
2022/08/22 00:21:23;;;;;;;7.45;4.50;;;;;;;20.36;51.02;101546.97;4988935;28;118503;-80
2022/08/22 00:24:03;;;;;;;8.35;4.43;;;;;;;20.36;50.94;101544.28;4975975;28;123377;-80
2022/08/22 00:26:49;;;;;;;7.00;4.28;;;;;;;20.36;51.22;101538.91;5002720;28;124552;-80
2022/08/22 00:29:34;;;;;;;;;;;;;;;20.33;50.53;101539.13;4998051;28;120495;-81
2022/08/22 00:32:32;;;;;;;5.53;4.25;;;;;;;20.33;50.57;101547.19;4986314;28;119045;-80
2022/08/22 00:35:01;;;;;;;;;;;;;;;20.30;50.05;101542.03;5006167;28;126032;-79
2022/08/22 00:37:39;;;;;;;7.95;4.68;;;;;;;20.30;50.60;101547.41;4999843;28;123567;-80
2022/08/22 00:40:15;;;;;;;6.60;4.32;;;;;;;20.29;50.69;101543.03;5003139;28;119360;-79
2022/08/22 00:43:18;;;;;;;7.05;4.72;;;;;;;20.28;50.73;101541.28;5017907;28;118788;-79
2022/08/22 00:46:17;;;;;;;10.05;4.88;;;;;;;20.27;51.13;101544.97;4988146;28;124307;-80
2022/08/22 00:48:59;;;;;;;7.55;4.15;;;;;;;20.26;51.05;101537.88;5001720;28;124230;-79
2022/08/22 00:51:53;;;;;;;7.00;4.53;;;;;;;20.26;51.15;101537.00;5006573;28;118335;-80
2022/08/22 00:54:29;;;;;;;7.22;4.45;;;;;;;20.23;51.18;101538.13;5020572;28;118958;-79
2022/08/22 00:57:41;;;;;;;10.35;4.95;;;;;;;20.24;51.24;101545.19;5009206;28;124093;-80
2022/08/22 01:00:18;;;;;;;9.00;4.70;;;;;;;20.23;51.36;101549.72;4995077;28;123778;-80
2022/08/22 01:03:01;;;;;;;6.78;4.70;;;;;;;20.24;51.28;101550.56;5008696;28;119621;-80
2022/08/22 01:06:07;;;;;;;8.43;4.55;;;;;;;20.22;51.31;101557.91;4989482;28;118892;-81
2022/08/22 01:08:35;;;;;;;10.02;5.00;;;;;;;20.22;51.56;101545.31;4996205;28;123976;-80
2022/08/22 01:11:28;;;;;;;8.20;4.82;;;;;;;20.22;51.78;101549.84;5006114;28;122047;-80
2022/08/22 01:14:13;;;;;;;7.68;4.40;;;;;;;20.20;51.68;101547.25;4994603;28;118141;-80
2022/08/22 01:17:01;;;;;;;6.95;4.65;;;;;;;20.18;51.88;101557.28;4990085;28;118136;-79
2022/08/22 01:19:59;;;;;;;7.65;4.78;;;;;;;20.17;51.75;101552.00;5007379;28;98451;-80
2022/08/22 01:22:41;;;;;;;8.75;5.15;;;;;;;20.18;52.12;101556.41;5005597;28;122337;-81
2022/08/22 01:25:47;;;;;;;6.88;4.45;;;;;;;20.16;52.02;101553.00;5003802;28;120967;-80
2022/08/22 01:28:38;;;;;;;8.57;4.90;;;;;;;20.15;52.02;101556.63;5014099;28;119931;-81
2022/08/22 01:31:26;;;;;;;7.55;4.60;;;;;;;20.11;52.14;101556.00;5005252;28;124426;-80
2022/08/22 01:34:30;;;;;;;9.02;4.97;;;;;;;20.09;52.37;101549.88;5018555;28;123743;-80
2022/08/22 01:37:32;;;;;;;7.90;4.70;;;;;;;20.09;52.47;101551.72;5004466;28;118428;-81
2022/08/22 01:40:33;;;;;;;7.80;4.93;;;;;;;20.10;52.40;101553.41;5005219;28;119234;-80
2022/08/22 01:43:26;;;;;;;7.22;4.70;;;;;;;20.08;52.44;101550.88;5015414;28;123252;-80
2022/08/22 01:46:30;;;;;;;9.27;4.45;;;;;;;20.09;52.71;101557.09;5007371;28;124055;-80
2022/08/22 01:49:22;;;;;;;8.85;4.82;;;;;;;20.09;52.54;101551.72;4998748;28;120284;-79
2022/08/22 01:52:08;;;;;;;6.85;4.65;;;;;;;20.10;52.86;101548.03;4982600;28;118949;-80
2022/08/22 01:54:38;;;;;;;;;;;;;;;20.08;52.06;101544.59;4987567;28;122734;-81
2022/08/22 01:57:07;;;;;;;9.40;4.43;;;;;;;20.10;52.42;101548.03;4996508;28;123307;-81
2022/08/22 01:59:44;;;;;;;8.70;4.97;;;;;;;20.12;52.85;101546.13;5006246;28;119325;-80
2022/08/22 02:02:47;;;;;;;5.60;4.50;;;;;;;20.11;52.58;101549.78;5003759;28;119213;-80
2022/08/22 02:05:27;;;;;;;6.97;4.90;;;;;;;20.10;52.90;101540.84;4997613;28;124335;-80
2022/08/22 02:08:26;;;;;;;7.50;4.72;;;;;;;20.10;52.69;101539.97;4996036;28;123720;-80
2022/08/22 02:11:02;;;;;;;6.60;4.43;;;;;;;20.09;53.10;101535.59;5001584;28;118549;-81
2022/08/22 02:13:53;;;;;;;8.60;4.38;;;;;;;20.08;53.29;101544.59;5003300;28;119033;-80
2022/08/22 02:16:47;;;;;;;8.05;4.32;;;;;;;20.06;53.28;101546.56;4984352;28;122854;-80
2022/08/22 02:19:14;;;;;;;9.27;4.40;;;;;;;20.07;53.25;101548.28;5005967;28;123789;-80
2022/08/22 02:21:50;;;;;;;6.95;3.92;;;;;;;20.08;53.36;101541.91;5003514;28;119698;-80
2022/08/22 02:24:32;;;;;;;8.60;4.10;;;;;;;20.09;53.11;101541.81;5000030;28;119003;-79
2022/08/22 02:27:14;;;;;;;8.05;4.55;;;;;;;20.11;53.29;101539.00;5002209;28;124662;-80
2022/08/22 02:30:11;;;;;;;8.25;3.97;;;;;;;20.10;53.22;101538.16;5013117;28;124133;-80
2022/08/22 02:32:49;;;;;;;9.02;4.35;;;;;;;20.10;53.37;101531.91;4989371;28;118269;-80
2022/08/22 02:35:26;;;;;;;6.95;4.40;;;;;;;20.11;53.50;101534.47;4987584;28;118261;-80
2022/08/22 02:38:23;;;;;;;8.05;4.43;;;;;;;20.14;53.25;101528.03;4993414;28;123508;-81
2022/08/22 02:41:20;;;;;;;8.02;4.43;;;;;;;20.14;53.33;101522.66;5018321;28;122264;-80
2022/08/22 02:43:57;;;;;;;7.18;4.22;;;;;;;20.14;53.34;101518.13;5001367;28;119125;-81
2022/08/22 02:47:02;;;;;;;8.55;4.28;;;;;;;20.15;53.37;101524.34;5002939;28;118732;-80
2022/08/22 02:49:41;;;;;;;8.82;4.07;;;;;;;20.14;53.35;101528.03;4991807;28;124807;-80
2022/08/22 02:52:09;;;;;;;5.90;3.97;;;;;;;20.14;53.40;101519.97;5000885;28;122456;-80
2022/08/22 02:55:00;;;;;;;8.35;4.47;;;;;;;20.14;53.40;101517.28;5004846;28;120343;-81
2022/08/22 02:57:39;;;;;;;10.10;4.57;;;;;;;20.15;53.41;101516.28;5001876;28;118849;-81
2022/08/22 03:00:22;;;;;;;6.93;4.70;;;;;;;20.14;53.51;101523.50;5004710;28;123922;-80
2022/08/22 03:03:13;;;;;;;6.88;4.03;;;;;;;20.13;53.61;101526.31;5006514;28;124157;-81
2022/08/22 03:05:40;;;;;;;6.60;4.82;;;;;;;20.10;53.77;101516.66;4988374;28;118220;-81
2022/08/22 03:08:19;;;;;;;8.93;4.43;;;;;;;20.06;53.52;101514.28;4986520;28;117564;-81
2022/08/22 03:11:06;;;;;;;7.90;4.38;;;;;;;20.05;54.32;101509.91;5002114;28;124014;-81
2022/08/22 03:13:45;;;;;;;7.72;4.13;;;;;;;20.03;53.96;101505.47;5000379;28;123959;-81
2022/08/22 03:16:22;;;;;;;7.38;4.70;;;;;;;20.05;54.41;101499.13;5007391;28;120178;-81
2022/08/22 03:19:14;;;;;;;6.72;4.43;;;;;;;20.05;54.28;101501.84;5003616;28;120152;-80
2022/08/22 03:22:04;;;;;;;8.80;4.10;;;;;;;20.01;54.43;101496.66;5005120;28;124269;-81
2022/08/22 03:25:22;;;;;;;7.15;4.25;;;;;;;19.99;54.48;101498.63;5002520;28;122665;-80
2022/08/22 03:27:56;;;;;;;10.25;4.10;;;;;;;19.99;54.70;101498.63;4980607;28;119075;-80
2022/08/22 03:30:35;;;;;;;8.77;3.65;;;;;;;20.00;54.88;101504.84;4999327;28;117976;-81
2022/08/22 03:33:17;;;;;;;9.07;4.22;;;;;;;20.02;54.77;101509.16;5005947;28;124238;-80
2022/08/22 03:35:44;;;;;;;8.38;4.20;;;;;;;20.06;54.83;101503.53;5005105;28;123924;-81
2022/08/22 03:38:33;;;;;;;9.20;3.85;;;;;;;20.07;54.85;101499.88;5005256;28;118932;-81
2022/08/22 03:41:18;;;;;;;9.50;4.20;;;;;;;20.09;54.90;101503.31;5008400;28;119438;-80
2022/08/22 03:44:20;;;;;;;8.80;3.85;;;;;;;20.10;54.71;101499.63;5019383;28;123919;-79
2022/08/22 03:47:16;;;;;;;7.10;4.00;;;;;;;20.12;54.72;101497.72;5005747;28;123828;-81
2022/08/22 03:50:09;;;;;;;6.57;3.95;;;;;;;20.14;54.69;101490.38;4998030;28;120407;-80
2022/08/22 03:53:07;;;;;;;6.47;3.72;;;;;;;20.14;54.80;101485.00;5005028;28;118354;-80
2022/08/22 03:56:22;;;;;;;5.95;4.25;;;;;;;20.14;54.76;101490.38;5005489;28;123724;-81
2022/08/22 03:59:33;;;;;;;9.48;3.72;;;;;;;20.14;54.79;101482.31;5006449;28;124538;-81
2022/08/22 04:02:39;;;;;;;8.43;4.13;;;;;;;20.10;54.36;101494.25;5022271;28;118282;-79
2022/08/22 04:05:32;;;;;;;9.38;3.85;;;;;;;20.10;54.82;101496.94;4986627;28;118410;-79
2022/08/22 04:08:29;;;;;;;7.25;3.55;;;;;;;20.08;54.75;101502.47;5022231;28;123376;-81
2022/08/22 04:11:17;;;;;;;4.55;3.65;;;;;;;20.07;54.79;101497.19;4972893;28;122838;-81
2022/08/22 04:14:23;;;;;;;5.75;3.83;;;;;;;20.05;54.76;101496.44;5006760;28;120036;-81
2022/08/22 04:17:24;;;;;;;7.75;4.20;;;;;;;20.02;54.51;101493.03;5019927;28;119202;-80
2022/08/22 04:20:19;;;;;;;8.70;4.28;;;;;;;19.98;54.75;101488.81;5003811;28;123734;-79
2022/08/22 04:22:49;;;;;;;7.00;4.15;;;;;;;19.95;54.71;101497.13;4987855;28;123038;-80
2022/08/22 04:25:38;;;;;;;8.95;4.75;;;;;;;19.92;54.86;101499.19;5006751;28;119528;-79
2022/08/22 04:28:20;;;;;;;9.23;4.03;;;;;;;19.89;54.71;101491.34;4996517;28;118389;-81
2022/08/22 04:30:54;;;;;;;7.07;4.20;;;;;;;19.85;54.47;101506.84;5005085;28;123670;-81
2022/08/22 04:33:35;;;;;;;7.10;4.32;;;;;;;19.84;54.67;101505.13;5003093;28;123047;-81
2022/08/22 04:36:16;;;;;;;7.05;4.30;;;;;;;19.81;54.82;101506.19;5001859;28;120151;-81
2022/08/22 04:39:17;;;;;;;7.90;4.65;;;;;;;19.79;54.79;101507.28;5006323;28;118787;-80
2022/08/22 04:41:50;;;;;;;7.80;4.03;;;;;;;19.76;54.80;101507.50;5000959;28;123747;-81
2022/08/22 04:44:42;;;;;;;8.32;4.40;;;;;;;19.73;54.89;101507.75;4990587;28;122896;-81
2022/08/22 04:47:17;;;;;;;7.00;4.22;;;;;;;19.72;54.82;101519.44;5001694;28;119060;-81
2022/08/22 04:49:58;;;;;;;6.57;4.20;;;;;;;19.69;55.01;101508.91;5000305;28;118640;-81
2022/08/22 04:52:33;;;;;;;8.40;4.30;;;;;;;19.68;55.29;101515.25;5020472;28;124304;-80
2022/08/22 04:55:44;;;;;;;9.15;4.35;;;;;;;19.67;55.20;101502.81;5007393;28;122349;-80
2022/08/22 04:58:17;;;;;;;9.30;4.15;;;;;;;19.67;55.39;101513.56;4985414;28;120102;-80
2022/08/22 05:01:09;;;;;;;8.07;4.55;;;;;;;19.66;55.30;101507.28;5000033;28;118977;-80
2022/08/22 05:03:45;;;;;;;6.70;4.45;;;;;;;19.65;55.64;101511.81;5001822;28;124244;-80
2022/08/22 05:06:14;;;;;;;9.02;4.72;;;;;;;19.67;55.46;101508.19;5004568;28;126352;-81
2022/08/22 05:08:44;;;;;;;9.05;4.43;;;;;;;19.66;55.72;101523.41;5005285;28;119793;-80
2022/08/22 05:11:18;;;;;;;10.68;5.05;;;;;;;19.67;55.69;101518.94;5010180;28;120206;-80
2022/08/22 05:13:58;;;;;;;7.95;4.97;;;;;;;19.66;55.76;101526.09;4989276;28;122904;-80
2022/08/22 05:16:41;;;;;;;11.25;4.95;;;;;;;19.65;55.79;101530.63;5028015;28;122605;-81
2022/08/22 05:19:16;;;;;;;9.75;4.75;;;;;;;19.65;56.04;101527.94;5000508;28;118162;-80
2022/08/22 05:21:54;;;;;;;9.27;4.78;;;;;;;19.67;55.86;101524.31;5011110;28;119729;-80
2022/08/22 05:24:21;;;;;;;7.95;4.78;;;;;;;19.68;55.96;101526.00;5001764;28;123626;-80
2022/08/22 05:27:00;;;;;;;7.30;4.60;;;;;;;19.69;56.13;101527.72;5004707;28;123207;-80
2022/08/22 05:29:29;;;;;;;8.55;4.68;;;;;;;19.70;56.17;101524.91;5004558;28;119415;-81
2022/08/22 05:32:02;;;;;;;8.23;4.82;;;;;;;19.72;56.18;101523.03;5003393;28;118601;-81
2022/08/22 05:34:35;;;;;;;8.07;5.10;;;;;;;19.76;56.23;101526.31;5002715;28;123911;-81
2022/08/22 05:37:22;;;;;;;9.68;4.97;;;;;;;19.79;56.10;101528.81;5006677;28;124595;-80
2022/08/22 05:39:57;;;;;;;7.63;4.60;;;;;;;19.82;56.35;101533.97;5015009;28;118427;-80
2022/08/22 05:42:28;;;;;;;8.82;4.75;;;;;;;19.84;56.36;101538.25;5003551;28;117935;-79
2022/08/22 05:44:56;;;;;;;11.20;4.95;;;;;;;19.88;56.47;101536.19;5019866;28;122834;-79
2022/08/22 05:47:32;;;;;;;11.15;5.15;;;;;;;19.94;56.74;101543.81;5003463;28;124540;-80
2022/08/22 05:50:14;;;;;;;10.68;5.20;;;;;;;19.98;56.82;101534.53;5004578;28;118120;-78
2022/08/22 05:53:05;;;;;;;12.65;5.75;;;;;;;20.03;56.90;101542.28;5001061;28;117895;-79
2022/08/22 05:55:58;;;;;;;9.10;5.07;;;;;;;20.08;56.78;101539.22;5004221;28;123279;-79
2022/08/22 05:58:37;;;;;;;10.45;5.30;;;;;;;20.12;56.91;101530.00;5000785;28;123825;-78
2022/08/22 06:01:41;;;;;;;10.45;5.82;;;;;;;20.16;56.94;101536.84;5001726;28;119547;-78
2022/08/22 06:04:26;;;;;;;9.75;5.53;;;;;;;20.21;56.97;101532.84;5002723;28;120655;-79
2022/08/22 06:06:59;;;;;;;;;;;;;;;20.22;56.42;101531.00;5006285;28;124127;-79
2022/08/22 06:09:38;;;;;;;7.93;4.95;;;;;;;20.29;56.72;101532.25;5008530;28;123711;-79
2022/08/22 06:12:18;;;;;;;9.40;5.78;;;;;;;20.31;57.05;101527.63;5019224;28;117939;-78
2022/08/22 06:15:03;;;;;;;8.07;5.20;;;;;;;20.37;57.11;101540.59;4994658;28;120135;-78
2022/08/22 06:18:04;;;;;;;14.55;5.95;;;;;;;20.47;57.33;101545.28;4997994;28;122104;-79
2022/08/22 06:20:48;;;;;;;7.65;5.40;;;;;;;20.55;57.31;101542.88;4998576;28;122865;-78
2022/08/22 06:23:41;;;;;;;11.87;5.50;;;;;;;20.64;57.39;101547.59;4999566;28;119092;-78
2022/08/22 06:26:10;;;;;;;7.88;5.32;;;;;;;20.72;57.45;101542.50;5004631;28;118101;-78
2022/08/22 06:28:51;;;;;;;12.30;6.13;;;;;;;20.79;57.52;101551.81;4997971;28;123991;-79
2022/08/22 06:31:28;;;;;;;11.93;5.73;;;;;;;20.87;57.52;101547.66;5016050;28;124027;-78
2022/08/22 06:34:21;;;;;;;12.37;5.73;;;;;;;20.98;57.14;101550.38;5003622;28;118753;-78
2022/08/22 06:36:51;;;;;;;13.85;6.07;;;;;;;21.06;57.37;101558.72;5000996;28;119183;-78
2022/08/22 06:39:21;;;;;;;15.48;6.07;;;;;;;21.13;57.38;101554.53;5003233;28;123997;-78
2022/08/22 06:42:01;;;;;;;15.88;6.40;;;;;;;21.19;57.53;101558.59;4999993;28;123134;-79
2022/08/22 06:44:42;;;;;;;11.10;6.45;;;;;;;21.27;57.55;101560.72;5002224;28;118451;-78
2022/08/22 06:47:16;;;;;;;10.40;6.10;;;;;;;21.34;57.25;101564.63;5003000;28;118647;-77
2022/08/22 06:49:44;;;;;;;12.20;6.75;;;;;;;21.36;57.26;101554.56;4992881;28;122240;-77
2022/08/22 06:52:19;;;;;;;11.05;6.28;;;;;;;21.40;57.49;101556.06;5005017;28;123498;-78
2022/08/22 06:54:48;;;;;;;11.98;6.38;;;;;;;21.45;57.65;101564.66;5007028;28;120616;-78
2022/08/22 06:57:41;;;;;;;12.57;6.65;;;;;;;21.53;57.45;101562.22;5004510;28;119090;-78
2022/08/22 07:00:12;;;;;;;9.38;6.50;;;;;;;21.59;57.31;101560.88;5006724;28;123180;-81
2022/08/22 07:02:47;;;;;;;11.90;6.40;;;;;;;21.66;57.38;101555.81;4993868;28;123451;-78
2022/08/22 07:05:27;;;;;;;11.88;6.07;;;;;;;21.71;57.37;101559.00;5002913;28;119342;-78
2022/08/22 07:07:55;;;;;;;11.57;6.50;;;;;;;21.80;57.30;101573.59;5015789;28;120084;-78
2022/08/22 07:10:23;;;;;;;11.93;6.72;;;;;;;21.89;57.43;101573.72;4994964;28;123156;-78
2022/08/22 07:12:55;;;;;;;11.80;6.35;;;;;;;21.99;57.26;101573.81;5006771;28;123061;-78
2022/08/22 07:15:35;;;;;;;9.68;6.30;;;;;;;22.09;57.33;101573.91;5000910;28;118621;-79
2022/08/22 07:18:14;;;;;;;11.57;6.25;;;;;;;22.19;57.03;101569.47;4995804;28;117452;-78
2022/08/22 07:20:46;;;;;;;12.13;6.28;;;;;;;22.28;56.76;101574.16;5007604;28;123147;-78
2022/08/22 07:23:34;;;;;;;13.75;6.13;;;;;;;22.38;56.87;101581.44;4994161;28;123231;-78
2022/08/22 07:26:24;;;;;;;10.27;6.47;;;;;;;22.47;56.74;101577.97;5006343;28;118767;-78
2022/08/22 07:28:57;;;;;;;13.18;6.35;;;;;;;22.59;56.57;101582.38;5009743;28;119007;-79
2022/08/22 07:31:40;;;;;;;12.98;6.05;;;;;;;22.70;56.38;101571.50;4989622;28;122871;-77
2022/08/22 07:34:26;;;;;;;12.40;6.45;;;;;;;22.81;56.35;101577.81;5004832;28;123643;-77
2022/08/22 07:36:59;;;;;;;13.27;6.40;;;;;;;22.92;55.99;101572.38;5005255;28;119328;-77
2022/08/22 07:39:44;;;;;;;10.82;6.72;;;;;;;23.00;55.84;101579.81;5013361;28;119040;-77
2022/08/22 07:42:17;;;;;;;10.82;6.38;;;;;;;23.05;55.61;101567.66;5009207;28;122037;-77
2022/08/22 07:45:15;;;;;;;10.60;6.10;;;;;;;23.13;55.31;101565.16;5001084;28;122758;-77
2022/08/22 07:48:16;;;;;;;9.57;6.35;;;;;;;23.19;55.08;101565.59;4990103;28;119536;-77
2022/08/22 07:51:00;;;;;;;11.25;6.32;;;;;;;23.23;54.96;101570.59;4992980;28;118828;-78
2022/08/22 07:53:47;;;;;;;11.32;5.97;;;;;;;23.29;55.08;101569.22;5006727;28;122371;-77
2022/08/22 07:56:20;;;;;;;12.35;6.07;;;;;;;23.36;55.14;101564.97;4996155;28;123533;-77
2022/08/22 07:58:52;;;;;;;15.35;6.40;;;;;;;23.45;55.14;101558.78;5002706;28;119276;-77
2022/08/22 08:01:22;;;;;;;10.05;5.68;;;;;;;23.51;55.04;101558.22;5002180;28;118839;-77
2022/08/22 08:03:53;;;;;;;12.15;6.13;;;;;;;23.61;54.37;101562.81;5004132;28;124867;-78
2022/08/22 08:06:25;;;;;;;11.18;6.47;;;;;;;23.64;53.94;101557.09;5001265;28;124127;-79
2022/08/22 08:08:54;;;;;;;14.13;6.40;;;;;;;23.67;53.86;101556.84;5003899;28;119088;-79
2022/08/22 08:11:26;;;;;;;14.95;6.38;;;;;;;23.70;54.02;101556.59;5004322;28;118921;-79
2022/08/22 08:14:00;;;;;;;11.43;6.13;;;;;;;23.80;54.03;101545.81;5001155;28;124719;-80
2022/08/22 08:16:33;;;;;;;12.25;6.40;;;;;;;23.88;53.80;101549.56;5001334;28;123375;-79
2022/08/22 08:19:01;;;;;;;9.57;5.88;;;;;;;23.96;53.50;101550.69;5002775;28;119186;-79
2022/08/22 08:21:48;;;;;;;10.68;5.32;;;;;;;24.01;53.16;101548.44;4986217;28;118135;-79
2022/08/22 08:24:21;;;;;;;10.52;5.97;;;;;;;24.11;53.05;101549.31;5004249;28;123593;-77
2022/08/22 08:29:53;;;;;;;10.23;5.07;;;;;;;24.41;53.14;101542.03;5006832;28;118981;-78
2022/08/22 08:32:23;;;;;;;10.45;5.68;;;;;;;24.56;52.96;101537.94;5002774;28;118597;-79
2022/08/22 08:34:51;;;;;;;10.48;5.70;;;;;;;24.67;52.18;101524.22;5003302;28;123278;-79
2022/08/22 08:37:33;;;;;;;11.85;5.53;;;;;;;24.79;52.42;101526.78;5004268;28;123883;-79
2022/08/22 08:40:15;;;;;;;9.00;5.38;;;;;;;24.91;51.81;101525.63;5000324;28;120777;-77
2022/08/22 08:46:08;;;;;;;8.93;5.60;;;;;;;25.10;51.93;101523.88;5006851;28;125197;-79
2022/08/22 08:49:12;;;;;;;11.65;6.10;;;;;;;25.24;51.54;101526.13;4978905;28;123972;-77
2022/08/22 08:51:46;;;;;;;9.55;5.60;;;;;;;25.36;51.50;101522.22;5000651;28;119445;-80
2022/08/22 08:54:50;;;;;;;8.20;5.32;;;;;;;25.44;51.10;101522.31;4998937;28;119347;-80
2022/08/22 08:57:40;;;;;;;9.10;4.93;;;;;;;25.48;50.52;101516.59;4986898;28;124652;-80
2022/08/22 09:00:28;;;;;;;10.93;6.00;;;;;;;25.49;50.35;101523.75;5004572;28;123138;-79
2022/08/22 09:03:16;;;;;;;9.85;5.20;;;;;;;25.51;50.39;101516.31;4991694;28;117120;-80
2022/08/22 09:06:06;;;;;;;8.90;5.30;;;;;;;25.61;50.87;101519.81;4991044;28;119938;-80
2022/08/22 09:08:44;;;;;;;9.65;4.43;;;;;;;25.75;50.32;101530.19;5003496;28;123919;-79
2022/08/22 09:11:56;;;;;;;9.73;4.75;;;;;;;25.89;49.89;101525.22;4984655;28;122920;-80
2022/08/22 09:15:01;;;;;;;8.80;4.35;;;;;;;25.98;49.56;101519.78;4986734;28;118842;-80
2022/08/22 09:17:59;;;;;;;9.85;4.80;;;;;;;26.10;49.37;101522.25;4991481;28;118152;-80
2022/08/22 09:20:48;;;;;;;8.75;4.50;;;;;;;26.17;49.03;101524.19;4978455;28;123184;-80
2022/08/22 09:23:34;;;;;;;7.18;4.30;;;;;;;26.26;48.89;101521.56;4984618;28;123037;-80
2022/08/22 09:26:15;;;;;;;10.95;4.40;;;;;;;26.31;48.37;101530.09;4998540;28;119580;-80
2022/08/22 09:29:00;;;;;;;8.32;4.07;;;;;;;26.37;48.25;101524.03;5000934;28;118861;-80
2022/08/22 09:31:33;;;;;;;;;;;;;;;26.40;49.09;101518.28;4996776;28;124770;-80
2022/08/22 09:34:24;;;;;;;9.35;3.97;;;;;;;26.50;47.67;101513.63;4998151;28;123930;-80
2022/08/22 09:37:20;;;;;;;8.20;3.80;;;;;;;26.52;47.96;101510.75;4994248;28;120511;-80
2022/08/22 09:40:18;;;;;;;7.55;3.80;;;;;;;26.54;48.13;101511.44;4976264;28;119357;-80
2022/08/22 09:43:04;;;;;;;10.25;4.05;;;;;;;26.60;48.07;101514.41;5002432;28;123693;-80
2022/08/22 09:45:32;;;;;;;5.65;2.70;;;;;;;26.69;46.80;101514.47;5001463;28;122743;-80
2022/08/22 09:48:05;;;;;;;5.95;2.70;;;;;;;26.73;46.00;101507.69;5000827;28;118397;-80
2022/08/22 09:50:59;;;;;;;9.13;2.90;;;;;;;26.75;46.03;101505.72;4999887;28;118754;-77
2022/08/22 09:53:52;;;;;;;6.30;3.28;;;;;;;26.80;45.63;101512.38;5000218;28;123942;-78
2022/08/22 09:56:37;;;;;;;5.80;2.33;;;;;;;26.88;45.16;101499.81;5004146;28;123833;-78
2022/08/22 09:59:21;;;;;;;6.87;2.80;;;;;;;26.95;44.79;101507.19;5003030;28;118669;-78
2022/08/22 10:01:52;;;;;;;6.60;2.47;;;;;;;27.02;44.17;101512.00;5000633;28;119377;-78
2022/08/22 10:04:30;;;;;;;9.43;2.38;;;;;;;27.07;43.90;101509.63;5000851;28;123637;-78
2022/08/22 10:07:13;;;;;;;6.53;1.83;;;;;;;27.13;43.46;101504.41;4999397;28;124654;-79
2022/08/22 10:10:05;;;;;;;4.90;2.05;;;;;;;27.23;44.12;101504.28;5001381;28;119421;-78
2022/08/22 10:12:54;;;;;;;7.45;2.42;;;;;;;27.36;43.70;101496.53;5002311;28;118589;-78
2022/08/22 10:15:36;;;;;;;6.25;2.25;;;;;;;27.46;43.31;101501.00;5002807;28;124509;-78
2022/08/22 10:18:38;;;;;;;7.57;1.90;;;;;;;27.58;42.77;101499.72;5000919;28;123966;-78
2022/08/22 10:21:37;;;;;;;6.18;1.95;;;;;;;27.66;42.55;101493.44;4963139;28;119516;-79
2022/08/22 10:24:22;;;;;;;6.05;1.95;;;;;;;27.73;41.92;101498.06;4996920;28;119826;-78
2022/08/22 10:26:54;;;;;;;7.30;2.42;;;;;;;27.76;41.33;101486.84;5001738;28;123324;-79
2022/08/22 10:29:57;;;;;;;5.32;2.30;;;;;;;27.80;41.41;101483.75;5002927;28;124207;-78
2022/08/22 10:32:43;;;;;;;5.30;1.92;;;;;;;27.87;40.98;101469.31;5001502;28;119021;-80
2022/08/22 10:35:25;;;;;;;7.47;2.30;;;;;;;27.93;40.78;101473.28;4996232;28;120040;-78
2022/08/22 10:37:58;;;;;;;3.53;1.90;;;;;;;27.98;41.33;101476.34;4986566;28;123991;-77
2022/08/22 10:40:33;;;;;;;12.15;2.90;;;;;;;28.02;40.46;101477.72;4996934;28;123358;-78
2022/08/22 10:43:26;;;;;;;8.85;2.42;;;;;;;28.04;40.71;101467.50;4989522;28;119280;-78
2022/08/22 10:46:06;;;;;;;5.57;2.10;;;;;;;28.08;40.53;101471.59;4995192;28;118968;-77
2022/08/22 10:49:00;;;;;;;6.57;2.08;;;;;;;28.11;39.91;101465.81;4993352;28;124608;-77
2022/08/22 10:51:46;;;;;;;5.88;1.90;;;;;;;28.15;40.02;101467.16;4994443;28;123793;-78
2022/08/22 10:54:31;;;;;;;19.85;3.88;;;;;;;28.23;39.62;101462.75;4996777;28;119486;-78
2022/08/22 10:57:21;;;;;;;8.75;2.10;;;;;;;28.31;39.56;101460.00;5001790;28;119107;-78
2022/08/22 10:59:58;;;;;;;5.60;2.00;;;;;;;28.42;39.37;101467.84;4998511;28;123946;-78
2022/08/22 11:02:49;;;;;;;4.25;1.85;;;;;;;28.51;40.00;101466.81;5001004;28;125087;-78
2022/08/22 11:05:34;;;;;;;7.97;1.85;;;;;;;28.63;38.84;101463.75;4986804;28;118548;-77
2022/08/22 11:08:20;;;;;;;4.65;2.10;;;;;;;28.73;39.09;101459.00;5002864;28;118323;-78
2022/08/22 11:11:15;;;;;;;6.40;1.88;;;;;;;28.91;39.12;101461.47;4985846;28;123376;-77
2022/08/22 11:14:08;;;;;;;4.70;1.70;;;;;;;29.11;38.94;101456.50;5004377;28;124364;-78
2022/08/22 11:16:56;;;;;;;6.15;1.65;;;;;;;29.22;37.80;101453.41;5015224;28;119987;-78
2022/08/22 11:19:30;;;;;;;4.43;1.77;;;;;;;29.26;37.44;101449.28;5001175;28;118646;-78
2022/08/22 11:22:42;;;;;;;3.47;1.50;;;;;;;29.33;37.46;101437.66;4984762;28;123612;-79
2022/08/22 11:25:24;;;;;;;5.57;1.88;;;;;;;29.36;37.07;101448.22;4964611;28;123743;-78
2022/08/22 11:28:30;;;;;;;6.18;1.90;;;;;;;29.40;37.52;101444.09;4998510;28;120768;-78
2022/08/22 11:31:21;;;;;;;4.80;1.75;;;;;;;29.42;37.29;101450.22;5001634;28;120950;-77
2022/08/22 11:33:57;;;;;;;4.07;1.77;;;;;;;29.43;36.66;101449.22;4974933;28;123702;-77
2022/08/22 11:36:37;;;;;;;5.15;1.70;;;;;;;29.45;36.20;101447.16;4993442;28;124262;-77
2022/08/22 11:39:28;;;;;;;5.40;2.10;;;;;;;29.49;36.39;101443.03;5004165;28;119588;-78
2022/08/22 11:42:13;;;;;;;4.68;2.17;;;;;;;29.56;35.52;101435.84;5006567;28;118544;-78
2022/08/22 11:45:03;;;;;;;6.82;2.13;;;;;;;29.61;35.96;101441.59;5016382;28;124733;-78
2022/08/22 11:47:46;;;;;;;4.35;1.85;;;;;;;29.71;36.44;101444.09;4987404;28;124685;-78
2022/08/22 11:50:33;;;;;;;8.55;2.13;;;;;;;29.84;35.66;101436.19;4999305;28;119384;-78
2022/08/22 11:53:15;;;;;;;4.35;1.92;;;;;;;30.01;35.70;101434.19;5000881;28;118613;-79
2022/08/22 11:56:06;;;;;;;4.65;1.77;;;;;;;30.18;35.38;101426.69;5002742;28;124647;-78
2022/08/22 11:58:55;;;;;;;4.47;1.80;;;;;;;30.30;34.76;101427.09;5001816;28;123932;-78
2022/08/22 12:01:42;;;;;;;8.32;1.83;;;;;;;30.39;34.35;101423.28;5003823;28;119928;-78
2022/08/22 12:04:50;;;;;;;4.30;1.70;;;;;;;30.47;34.16;101414.16;5018730;28;119345;-78
2022/08/22 12:07:27;;;;;;;5.72;1.80;;;;;;;30.55;34.13;101421.41;4941893;28;124525;-78
2022/08/22 12:10:01;;;;;;;4.55;1.60;;;;;;;30.63;33.56;101418.63;4997058;28;123872;-78
2022/08/22 12:12:55;;;;;;;4.93;1.65;;;;;;;30.67;33.77;101414.47;5006093;28;118250;-78
2022/08/22 12:15:29;;;;;;;3.60;1.88;;;;;;;30.73;34.30;101408.22;4981484;28;118175;-79
2022/08/22 12:18:23;;;;;;;5.57;1.80;;;;;;;30.88;33.85;101410.13;4996687;28;123856;-79
2022/08/22 12:21:18;;;;;;;4.60;1.77;;;;;;;31.00;33.35;101409.47;5002307;28;123425;-79
2022/08/22 12:24:23;;;;;;;4.70;1.73;;;;;;;31.05;33.00;101411.66;5017372;28;118457;-79
2022/08/22 12:27:21;;;;;;;4.85;1.92;;;;;;;31.11;33.56;101410.88;4950320;28;118754;-79
2022/08/22 12:30:11;;;;;;;4.07;2.03;;;;;;;31.10;32.97;101408.31;5005179;28;123204;-79
2022/08/22 12:32:47;;;;;;;3.85;1.63;;;;;;;31.05;33.42;101408.91;5003675;28;123927;-79
2022/08/22 12:35:36;;;;;;;5.80;1.85;;;;;;;31.06;33.75;101413.31;5005162;28;118800;-79
2022/08/22 12:38:27;;;;;;;5.35;2.08;;;;;;;31.14;33.11;101404.19;5007259;28;119859;-79
2022/08/22 12:41:27;;;;;;;6.70;2.13;;;;;;;31.16;33.04;101402.94;5008017;28;124157;-79
2022/08/22 12:44:30;;;;;;;6.82;2.55;;;;;;;31.12;33.15;101401.63;5005440;28;123154;-79